sensor_id;sensor_type;location;lat;lon;timestamp;P1;durP1;ratioP1;P2;durP2;ratioP2
17414;SDS011;8825;48.086;16.426;2024-01-11T00:00:36;53.90;;;48.78;;
17414;SDS011;8825;48.086;16.426;2024-01-11T00:03:04;49.08;;;44.55;;
17414;SDS011;8825;48.086;16.426;2024-01-11T00:05:31;95.38;;;89.20;;
17414;SDS011;8825;48.086;16.426;2024-01-11T00:07:59;75.15;;;69.72;;
17414;SDS011;8825;48.086;16.426;2024-01-11T00:10:26;51.80;;;47.20;;
17414;SDS011;8825;48.086;16.426;2024-01-11T00:12:54;48.08;;;43.80;;
17414;SDS011;8825;48.086;16.426;2024-01-11T00:15:21;47.53;;;42.85;;
17414;SDS011;8825;48.086;16.426;2024-01-11T00:17:49;58.63;;;53.50;;
17414;SDS011;8825;48.086;16.426;2024-01-11T00:20:16;57.90;;;52.95;;
17414;SDS011;8825;48.086;16.426;2024-01-11T00:22:44;51.13;;;46.33;;
17414;SDS011;8825;48.086;16.426;2024-01-11T00:25:12;49.85;;;45.12;;
17414;SDS011;8825;48.086;16.426;2024-01-11T00:27:39;73.70;;;68.40;;
17414;SDS011;8825;48.086;16.426;2024-01-11T00:30:07;73.72;;;67.90;;
17414;SDS011;8825;48.086;16.426;2024-01-11T00:32:35;74.58;;;69.27;;
17414;SDS011;8825;48.086;16.426;2024-01-11T00:35:02;73.47;;;67.45;;
17414;SDS011;8825;48.086;16.426;2024-01-11T00:37:30;83.50;;;76.65;;
17414;SDS011;8825;48.086;16.426;2024-01-11T00:39:58;76.30;;;70.65;;
17414;SDS011;8825;48.086;16.426;2024-01-11T00:42:25;65.67;;;60.33;;
17414;SDS011;8825;48.086;16.426;2024-01-11T00:44:53;75.67;;;69.95;;
17414;SDS011;8825;48.086;16.426;2024-01-11T00:47:21;49.03;;;44.50;;
17414;SDS011;8825;48.086;16.426;2024-01-11T00:49:48;46.20;;;42.03;;
17414;SDS011;8825;48.086;16.426;2024-01-11T00:52:16;65.52;;;60.17;;
17414;SDS011;8825;48.086;16.426;2024-01-11T00:54:43;66.62;;;61.42;;
17414;SDS011;8825;48.086;16.426;2024-01-11T00:57:11;67.20;;;62.10;;
17414;SDS011;8825;48.086;16.426;2024-01-11T00:59:39;58.68;;;53.92;;
17414;SDS011;8825;48.086;16.426;2024-01-11T01:02:07;44.83;;;40.58;;
17414;SDS011;8825;48.086;16.426;2024-01-11T01:04:39;56.68;;;52.08;;
17414;SDS011;8825;48.086;16.426;2024-01-11T01:07:04;52.27;;;47.93;;
17414;SDS011;8825;48.086;16.426;2024-01-11T01:09:32;47.95;;;44.05;;
17414;SDS011;8825;48.086;16.426;2024-01-11T01:12:00;52.85;;;48.35;;
17414;SDS011;8825;48.086;16.426;2024-01-11T01:14:28;47.90;;;43.90;;
17414;SDS011;8825;48.086;16.426;2024-01-11T01:16:56;46.58;;;42.48;;
17414;SDS011;8825;48.086;16.426;2024-01-11T01:19:23;46.02;;;42.03;;
17414;SDS011;8825;48.086;16.426;2024-01-11T01:21:51;47.05;;;42.73;;
17414;SDS011;8825;48.086;16.426;2024-01-11T01:24:18;46.63;;;42.48;;
17414;SDS011;8825;48.086;16.426;2024-01-11T01:26:46;57.53;;;52.48;;
17414;SDS011;8825;48.086;16.426;2024-01-11T01:29:13;57.88;;;52.85;;
17414;SDS011;8825;48.086;16.426;2024-01-11T01:31:41;55.58;;;51.05;;
17414;SDS011;8825;48.086;16.426;2024-01-11T01:34:08;49.03;;;44.77;;
17414;SDS011;8825;48.086;16.426;2024-01-11T01:36:36;45.78;;;41.65;;
17414;SDS011;8825;48.086;16.426;2024-01-11T01:39:04;53.02;;;48.73;;
17414;SDS011;8825;48.086;16.426;2024-01-11T01:41:31;40.73;;;36.93;;
17414;SDS011;8825;48.086;16.426;2024-01-11T01:43:59;36.85;;;32.83;;
17414;SDS011;8825;48.086;16.426;2024-01-11T01:46:26;40.48;;;36.35;;
17414;SDS011;8825;48.086;16.426;2024-01-11T01:48:57;37.73;;;34.08;;
17414;SDS011;8825;48.086;16.426;2024-01-11T01:51:24;40.73;;;36.70;;
17414;SDS011;8825;48.086;16.426;2024-01-11T01:53:55;39.42;;;35.68;;
17414;SDS011;8825;48.086;16.426;2024-01-11T01:56:24;41.55;;;37.48;;
17414;SDS011;8825;48.086;16.426;2024-01-11T01:58:53;45.92;;;41.65;;
17414;SDS011;8825;48.086;16.426;2024-01-11T02:01:21;42.45;;;38.20;;
17414;SDS011;8825;48.086;16.426;2024-01-11T02:04:10;50.55;;;46.18;;
17414;SDS011;8825;48.086;16.426;2024-01-11T02:06:38;54.33;;;49.60;;
17414;SDS011;8825;48.086;16.426;2024-01-11T02:09:05;48.55;;;44.18;;
17414;SDS011;8825;48.086;16.426;2024-01-11T02:11:34;48.45;;;44.08;;
17414;SDS011;8825;48.086;16.426;2024-01-11T02:14:02;50.45;;;45.80;;
17414;SDS011;8825;48.086;16.426;2024-01-11T02:16:30;45.30;;;40.92;;
17414;SDS011;8825;48.086;16.426;2024-01-11T02:18:57;60.80;;;55.43;;
17414;SDS011;8825;48.086;16.426;2024-01-11T02:21:25;57.13;;;52.17;;
17414;SDS011;8825;48.086;16.426;2024-01-11T02:26:31;51.48;;;46.50;;
17414;SDS011;8825;48.086;16.426;2024-01-11T02:28:59;53.05;;;48.08;;
17414;SDS011;8825;48.086;16.426;2024-01-11T02:31:27;58.58;;;53.60;;
17414;SDS011;8825;48.086;16.426;2024-01-11T02:33:55;63.38;;;58.33;;
17414;SDS011;8825;48.086;16.426;2024-01-11T02:36:23;58.13;;;52.62;;
17414;SDS011;8825;48.086;16.426;2024-01-11T02:38:52;55.52;;;50.35;;
17414;SDS011;8825;48.086;16.426;2024-01-11T02:41:21;55.23;;;49.88;;
17414;SDS011;8825;48.086;16.426;2024-01-11T02:43:50;57.67;;;52.03;;
17414;SDS011;8825;48.086;16.426;2024-01-11T02:46:20;56.48;;;50.95;;
17414;SDS011;8825;48.086;16.426;2024-01-11T02:48:48;66.20;;;60.95;;
17414;SDS011;8825;48.086;16.426;2024-01-11T02:51:15;53.23;;;48.15;;
17414;SDS011;8825;48.086;16.426;2024-01-11T02:53:43;62.33;;;56.68;;
17414;SDS011;8825;48.086;16.426;2024-01-11T02:56:10;53.68;;;48.40;;
17414;SDS011;8825;48.086;16.426;2024-01-11T02:58:38;62.20;;;56.55;;
17414;SDS011;8825;48.086;16.426;2024-01-11T03:01:06;54.50;;;49.60;;
17414;SDS011;8825;48.086;16.426;2024-01-11T03:03:33;52.35;;;47.60;;
17414;SDS011;8825;48.086;16.426;2024-01-11T03:06:01;61.85;;;56.65;;
17414;SDS011;8825;48.086;16.426;2024-01-11T03:08:29;73.60;;;67.85;;
17414;SDS011;8825;48.086;16.426;2024-01-11T03:10:57;58.78;;;53.68;;
17414;SDS011;8825;48.086;16.426;2024-01-11T03:13:24;67.17;;;61.53;;
17414;SDS011;8825;48.086;16.426;2024-01-11T03:15:51;62.80;;;57.10;;
17414;SDS011;8825;48.086;16.426;2024-01-11T03:18:19;63.63;;;57.45;;
17414;SDS011;8825;48.086;16.426;2024-01-11T03:20:47;61.10;;;55.48;;
17414;SDS011;8825;48.086;16.426;2024-01-11T03:23:14;55.05;;;49.75;;
17414;SDS011;8825;48.086;16.426;2024-01-11T03:25:42;53.30;;;48.15;;
17414;SDS011;8825;48.086;16.426;2024-01-11T03:28:09;70.85;;;65.22;;
17414;SDS011;8825;48.086;16.426;2024-01-11T03:30:37;73.22;;;67.70;;
17414;SDS011;8825;48.086;16.426;2024-01-11T03:33:04;62.48;;;57.17;;
17414;SDS011;8825;48.086;16.426;2024-01-11T03:35:32;65.28;;;59.63;;
17414;SDS011;8825;48.086;16.426;2024-01-11T03:37:59;59.83;;;54.27;;
17414;SDS011;8825;48.086;16.426;2024-01-11T03:40:27;58.85;;;53.05;;
17414;SDS011;8825;48.086;16.426;2024-01-11T03:42:54;58.35;;;52.88;;
17414;SDS011;8825;48.086;16.426;2024-01-11T03:45:22;64.27;;;58.55;;
17414;SDS011;8825;48.086;16.426;2024-01-11T03:47:49;64.22;;;58.80;;
17414;SDS011;8825;48.086;16.426;2024-01-11T03:50:17;72.78;;;67.10;;
17414;SDS011;8825;48.086;16.426;2024-01-11T03:52:45;60.35;;;54.95;;
17414;SDS011;8825;48.086;16.426;2024-01-11T03:55:13;66.75;;;61.02;;
17414;SDS011;8825;48.086;16.426;2024-01-11T03:57:40;71.47;;;65.72;;
17414;SDS011;8825;48.086;16.426;2024-01-11T04:00:10;69.80;;;63.78;;
17414;SDS011;8825;48.086;16.426;2024-01-11T04:02:38;68.17;;;62.53;;
17414;SDS011;8825;48.086;16.426;2024-01-11T04:05:05;84.40;;;78.37;;
17414;SDS011;8825;48.086;16.426;2024-01-11T04:07:33;80.47;;;74.37;;
17414;SDS011;8825;48.086;16.426;2024-01-11T04:10:01;82.10;;;75.47;;
17414;SDS011;8825;48.086;16.426;2024-01-11T04:12:28;80.07;;;73.57;;
17414;SDS011;8825;48.086;16.426;2024-01-11T04:14:56;72.25;;;66.28;;
17414;SDS011;8825;48.086;16.426;2024-01-11T04:17:23;84.80;;;78.12;;
17414;SDS011;8825;48.086;16.426;2024-01-11T04:19:51;78.25;;;71.80;;
17414;SDS011;8825;48.086;16.426;2024-01-11T04:22:18;85.57;;;79.05;;
17414;SDS011;8825;48.086;16.426;2024-01-11T04:24:46;89.07;;;82.12;;
17414;SDS011;8825;48.086;16.426;2024-01-11T04:27:13;70.30;;;64.45;;
17414;SDS011;8825;48.086;16.426;2024-01-11T04:29:42;89.47;;;83.00;;
17414;SDS011;8825;48.086;16.426;2024-01-11T04:34:56;119.57;;;112.05;;
17414;SDS011;8825;48.086;16.426;2024-01-11T04:37:23;75.83;;;69.77;;
17414;SDS011;8825;48.086;16.426;2024-01-11T04:39:51;106.87;;;99.90;;
17414;SDS011;8825;48.086;16.426;2024-01-11T04:42:18;97.97;;;91.47;;
17414;SDS011;8825;48.086;16.426;2024-01-11T04:44:46;103.60;;;97.15;;
17414;SDS011;8825;48.086;16.426;2024-01-11T04:47:13;90.72;;;84.17;;
17414;SDS011;8825;48.086;16.426;2024-01-11T04:49:41;93.37;;;87.05;;
17414;SDS011;8825;48.086;16.426;2024-01-11T04:52:08;132.65;;;124.75;;
17414;SDS011;8825;48.086;16.426;2024-01-11T04:54:36;81.40;;;75.12;;
17414;SDS011;8825;48.086;16.426;2024-01-11T04:57:04;84.92;;;78.80;;
17414;SDS011;8825;48.086;16.426;2024-01-11T04:59:32;109.60;;;102.45;;
17414;SDS011;8825;48.086;16.426;2024-01-11T05:01:59;81.55;;;75.32;;
17414;SDS011;8825;48.086;16.426;2024-01-11T05:04:27;78.25;;;72.25;;
17414;SDS011;8825;48.086;16.426;2024-01-11T05:06:54;91.00;;;84.72;;
17414;SDS011;8825;48.086;16.426;2024-01-11T05:09:23;97.00;;;90.45;;
17414;SDS011;8825;48.086;16.426;2024-01-11T05:11:51;84.90;;;78.42;;
17414;SDS011;8825;48.086;16.426;2024-01-11T05:14:18;131.20;;;123.30;;
17414;SDS011;8825;48.086;16.426;2024-01-11T05:16:46;136.55;;;128.42;;
17414;SDS011;8825;48.086;16.426;2024-01-11T05:19:13;124.65;;;116.90;;
17414;SDS011;8825;48.086;16.426;2024-01-11T05:21:41;95.22;;;88.60;;
17414;SDS011;8825;48.086;16.426;2024-01-11T05:24:08;76.55;;;70.28;;
17414;SDS011;8825;48.086;16.426;2024-01-11T05:26:36;94.87;;;87.97;;
17414;SDS011;8825;48.086;16.426;2024-01-11T05:29:03;90.28;;;83.62;;
17414;SDS011;8825;48.086;16.426;2024-01-11T05:31:31;88.50;;;81.85;;
17414;SDS011;8825;48.086;16.426;2024-01-11T05:33:58;73.52;;;67.05;;
17414;SDS011;8825;48.086;16.426;2024-01-11T05:36:26;95.47;;;88.50;;
17414;SDS011;8825;48.086;16.426;2024-01-11T05:38:53;62.67;;;57.27;;
17414;SDS011;8825;48.086;16.426;2024-01-11T05:41:21;64.27;;;58.73;;
17414;SDS011;8825;48.086;16.426;2024-01-11T05:43:48;58.40;;;53.15;;
17414;SDS011;8825;48.086;16.426;2024-01-11T05:46:16;70.12;;;64.27;;
17414;SDS011;8825;48.086;16.426;2024-01-11T05:48:43;63.75;;;58.10;;
17414;SDS011;8825;48.086;16.426;2024-01-11T05:51:11;68.33;;;62.33;;
17414;SDS011;8825;48.086;16.426;2024-01-11T05:53:38;60.85;;;55.50;;
17414;SDS011;8825;48.086;16.426;2024-01-11T05:56:09;57.53;;;51.70;;
17414;SDS011;8825;48.086;16.426;2024-01-11T05:58:37;59.58;;;53.80;;
17414;SDS011;8825;48.086;16.426;2024-01-11T06:01:05;57.27;;;51.73;;
17414;SDS011;8825;48.086;16.426;2024-01-11T06:03:33;50.00;;;44.63;;
17414;SDS011;8825;48.086;16.426;2024-01-11T06:06:01;49.25;;;43.85;;
17414;SDS011;8825;48.086;16.426;2024-01-11T06:08:29;49.55;;;44.65;;
17414;SDS011;8825;48.086;16.426;2024-01-11T06:10:58;50.78;;;45.40;;
17414;SDS011;8825;48.086;16.426;2024-01-11T06:13:25;51.08;;;46.00;;
17414;SDS011;8825;48.086;16.426;2024-01-11T06:15:53;53.13;;;47.35;;
17414;SDS011;8825;48.086;16.426;2024-01-11T06:18:21;54.75;;;48.92;;
17414;SDS011;8825;48.086;16.426;2024-01-11T06:20:48;53.40;;;47.78;;
17414;SDS011;8825;48.086;16.426;2024-01-11T06:23:16;63.85;;;57.80;;
17414;SDS011;8825;48.086;16.426;2024-01-11T06:25:45;66.42;;;60.30;;
17414;SDS011;8825;48.086;16.426;2024-01-11T06:28:12;60.33;;;54.13;;
17414;SDS011;8825;48.086;16.426;2024-01-11T06:30:40;63.92;;;58.00;;
17414;SDS011;8825;48.086;16.426;2024-01-11T06:33:09;57.05;;;51.23;;
17414;SDS011;8825;48.086;16.426;2024-01-11T06:35:36;59.00;;;53.30;;
17414;SDS011;8825;48.086;16.426;2024-01-11T06:38:04;61.10;;;55.15;;
17414;SDS011;8825;48.086;16.426;2024-01-11T06:40:32;59.10;;;53.05;;
17414;SDS011;8825;48.086;16.426;2024-01-11T06:42:59;55.23;;;49.75;;
17414;SDS011;8825;48.086;16.426;2024-01-11T06:45:27;58.33;;;52.62;;
17414;SDS011;8825;48.086;16.426;2024-01-11T06:47:54;57.40;;;51.63;;
17414;SDS011;8825;48.086;16.426;2024-01-11T06:50:22;57.10;;;51.53;;
17414;SDS011;8825;48.086;16.426;2024-01-11T06:52:50;57.43;;;51.37;;
17414;SDS011;8825;48.086;16.426;2024-01-11T06:55:19;58.42;;;52.43;;
17414;SDS011;8825;48.086;16.426;2024-01-11T06:57:47;61.33;;;55.28;;
17414;SDS011;8825;48.086;16.426;2024-01-11T07:00:14;58.28;;;52.25;;
17414;SDS011;8825;48.086;16.426;2024-01-11T07:02:42;68.50;;;61.70;;
17414;SDS011;8825;48.086;16.426;2024-01-11T07:05:09;53.75;;;47.73;;
17414;SDS011;8825;48.086;16.426;2024-01-11T07:07:38;55.12;;;49.35;;
17414;SDS011;8825;48.086;16.426;2024-01-11T07:10:05;60.95;;;54.45;;
17414;SDS011;8825;48.086;16.426;2024-01-11T07:12:34;61.15;;;55.12;;
17414;SDS011;8825;48.086;16.426;2024-01-11T07:15:03;60.40;;;54.03;;
17414;SDS011;8825;48.086;16.426;2024-01-11T07:17:33;58.13;;;51.80;;
17414;SDS011;8825;48.086;16.426;2024-01-11T07:20:01;55.43;;;49.65;;
17414;SDS011;8825;48.086;16.426;2024-01-11T07:22:30;60.75;;;54.58;;
17414;SDS011;8825;48.086;16.426;2024-01-11T07:24:57;61.75;;;55.33;;
17414;SDS011;8825;48.086;16.426;2024-01-11T07:27:25;68.22;;;61.95;;
17414;SDS011;8825;48.086;16.426;2024-01-11T07:29:52;73.80;;;66.97;;
17414;SDS011;8825;48.086;16.426;2024-01-11T07:32:20;73.52;;;66.97;;
17414;SDS011;8825;48.086;16.426;2024-01-11T07:34:47;70.10;;;63.50;;
17414;SDS011;8825;48.086;16.426;2024-01-11T07:37:15;72.12;;;65.95;;
17414;SDS011;8825;48.086;16.426;2024-01-11T07:39:42;85.10;;;77.58;;
17414;SDS011;8825;48.086;16.426;2024-01-11T07:42:10;83.70;;;76.67;;
17414;SDS011;8825;48.086;16.426;2024-01-11T07:44:37;68.80;;;62.20;;
17414;SDS011;8825;48.086;16.426;2024-01-11T07:47:05;58.78;;;52.60;;
17414;SDS011;8825;48.086;16.426;2024-01-11T07:49:32;62.38;;;56.18;;
17414;SDS011;8825;48.086;16.426;2024-01-11T07:52:00;55.48;;;49.27;;
17414;SDS011;8825;48.086;16.426;2024-01-11T07:54:28;75.15;;;68.52;;
17414;SDS011;8825;48.086;16.426;2024-01-11T07:56:56;69.03;;;62.48;;
17414;SDS011;8825;48.086;16.426;2024-01-11T07:59:24;57.20;;;51.30;;
17414;SDS011;8825;48.086;16.426;2024-01-11T08:01:51;57.65;;;51.80;;
17414;SDS011;8825;48.086;16.426;2024-01-11T08:04:19;73.75;;;67.08;;
17414;SDS011;8825;48.086;16.426;2024-01-11T08:06:47;64.47;;;58.52;;
17414;SDS011;8825;48.086;16.426;2024-01-11T08:09:14;57.27;;;51.77;;
17414;SDS011;8825;48.086;16.426;2024-01-11T08:11:43;52.05;;;44.38;;
17414;SDS011;8825;48.086;16.426;2024-01-11T08:14:12;50.83;;;44.23;;
17414;SDS011;8825;48.086;16.426;2024-01-11T08:16:40;57.23;;;51.23;;
17414;SDS011;8825;48.086;16.426;2024-01-11T08:19:07;58.13;;;52.27;;
17414;SDS011;8825;48.086;16.426;2024-01-11T08:21:36;57.50;;;51.55;;
17414;SDS011;8825;48.086;16.426;2024-01-11T08:24:03;51.50;;;45.75;;
17414;SDS011;8825;48.086;16.426;2024-01-11T08:26:32;56.20;;;50.50;;
17414;SDS011;8825;48.086;16.426;2024-01-11T08:29:00;53.87;;;48.60;;
17414;SDS011;8825;48.086;16.426;2024-01-11T08:31:28;49.95;;;44.73;;
17414;SDS011;8825;48.086;16.426;2024-01-11T08:33:55;51.35;;;45.95;;
17414;SDS011;8825;48.086;16.426;2024-01-11T08:36:23;48.05;;;42.43;;
17414;SDS011;8825;48.086;16.426;2024-01-11T08:38:50;55.83;;;50.08;;
17414;SDS011;8825;48.086;16.426;2024-01-11T08:41:18;50.80;;;45.40;;
17414;SDS011;8825;48.086;16.426;2024-01-11T08:43:45;53.90;;;48.58;;
17414;SDS011;8825;48.086;16.426;2024-01-11T08:46:22;58.85;;;52.88;;
17414;SDS011;8825;48.086;16.426;2024-01-11T08:48:43;51.63;;;45.48;;
17414;SDS011;8825;48.086;16.426;2024-01-11T08:51:11;54.42;;;48.98;;
17414;SDS011;8825;48.086;16.426;2024-01-11T08:53:39;54.85;;;49.15;;
17414;SDS011;8825;48.086;16.426;2024-01-11T08:56:06;62.62;;;56.60;;
17414;SDS011;8825;48.086;16.426;2024-01-11T08:58:34;52.62;;;47.40;;
17414;SDS011;8825;48.086;16.426;2024-01-11T09:01:02;54.60;;;48.90;;
17414;SDS011;8825;48.086;16.426;2024-01-11T09:03:29;58.13;;;52.70;;
17414;SDS011;8825;48.086;16.426;2024-01-11T09:05:57;52.30;;;46.63;;
17414;SDS011;8825;48.086;16.426;2024-01-11T09:08:24;56.75;;;51.02;;
17414;SDS011;8825;48.086;16.426;2024-01-11T09:10:52;57.00;;;51.80;;
17414;SDS011;8825;48.086;16.426;2024-01-11T09:13:19;65.17;;;59.20;;
17414;SDS011;8825;48.086;16.426;2024-01-11T09:15:47;55.60;;;50.20;;
17414;SDS011;8825;48.086;16.426;2024-01-11T09:18:14;52.80;;;47.35;;
17414;SDS011;8825;48.086;16.426;2024-01-11T09:20:43;49.73;;;44.85;;
17414;SDS011;8825;48.086;16.426;2024-01-11T09:23:11;56.48;;;50.95;;
17414;SDS011;8825;48.086;16.426;2024-01-11T09:25:38;52.17;;;47.33;;
17414;SDS011;8825;48.086;16.426;2024-01-11T09:28:06;50.88;;;45.75;;
17414;SDS011;8825;48.086;16.426;2024-01-11T09:30:33;46.80;;;41.90;;
17414;SDS011;8825;48.086;16.426;2024-01-11T09:33:01;43.92;;;39.25;;
17414;SDS011;8825;48.086;16.426;2024-01-11T09:35:30;44.38;;;39.70;;
17414;SDS011;8825;48.086;16.426;2024-01-11T09:37:57;46.73;;;41.90;;
17414;SDS011;8825;48.086;16.426;2024-01-11T09:40:27;48.98;;;44.50;;
17414;SDS011;8825;48.086;16.426;2024-01-11T09:42:55;55.33;;;50.55;;
17414;SDS011;8825;48.086;16.426;2024-01-11T09:45:23;64.95;;;59.70;;
17414;SDS011;8825;48.086;16.426;2024-01-11T09:47:52;73.47;;;67.57;;
17414;SDS011;8825;48.086;16.426;2024-01-11T09:50:20;63.10;;;57.83;;
17414;SDS011;8825;48.086;16.426;2024-01-11T09:52:49;49.20;;;44.57;;
17414;SDS011;8825;48.086;16.426;2024-01-11T09:55:17;40.67;;;36.67;;
17414;SDS011;8825;48.086;16.426;2024-01-11T09:57:48;40.73;;;36.63;;
17414;SDS011;8825;48.086;16.426;2024-01-11T10:00:19;44.53;;;40.53;;
17414;SDS011;8825;48.086;16.426;2024-01-11T10:02:49;58.43;;;53.60;;
17414;SDS011;8825;48.086;16.426;2024-01-11T10:05:18;58.97;;;54.17;;
17414;SDS011;8825;48.086;16.426;2024-01-11T10:07:45;46.13;;;42.17;;
17414;SDS011;8825;48.086;16.426;2024-01-11T10:10:13;47.73;;;42.90;;
17414;SDS011;8825;48.086;16.426;2024-01-11T10:12:42;39.50;;;35.70;;
17414;SDS011;8825;48.086;16.426;2024-01-11T10:15:10;36.93;;;33.07;;
17414;SDS011;8825;48.086;16.426;2024-01-11T10:17:42;38.40;;;34.30;;
17414;SDS011;8825;48.086;16.426;2024-01-11T10:20:16;36.90;;;33.20;;
17414;SDS011;8825;48.086;16.426;2024-01-11T10:22:41;38.20;;;33.67;;
17414;SDS011;8825;48.086;16.426;2024-01-11T10:25:09;38.03;;;34.20;;
17414;SDS011;8825;48.086;16.426;2024-01-11T10:27:39;34.77;;;31.47;;
17414;SDS011;8825;48.086;16.426;2024-01-11T10:30:11;47.20;;;43.33;;
17414;SDS011;8825;48.086;16.426;2024-01-11T10:32:42;42.30;;;38.43;;
17414;SDS011;8825;48.086;16.426;2024-01-11T10:35:10;50.27;;;45.43;;
17414;SDS011;8825;48.086;16.426;2024-01-11T10:37:38;44.23;;;40.00;;
17414;SDS011;8825;48.086;16.426;2024-01-11T10:40:09;48.30;;;43.73;;
17414;SDS011;8825;48.086;16.426;2024-01-11T10:42:40;43.27;;;39.37;;
17414;SDS011;8825;48.086;16.426;2024-01-11T10:45:15;55.70;;;51.30;;
17414;SDS011;8825;48.086;16.426;2024-01-11T10:48:02;57.13;;;52.33;;
17414;SDS011;8825;48.086;16.426;2024-01-11T10:50:30;58.23;;;53.63;;
17414;SDS011;8825;48.086;16.426;2024-01-11T10:53:09;65.47;;;60.93;;
17414;SDS011;8825;48.086;16.426;2024-01-11T10:55:40;59.30;;;54.60;;
17414;SDS011;8825;48.086;16.426;2024-01-11T10:58:09;55.07;;;50.67;;
17414;SDS011;8825;48.086;16.426;2024-01-11T11:00:37;53.27;;;48.97;;
17414;SDS011;8825;48.086;16.426;2024-01-11T11:03:05;58.80;;;54.07;;
17414;SDS011;8825;48.086;16.426;2024-01-11T11:05:34;56.23;;;51.60;;
17414;SDS011;8825;48.086;16.426;2024-01-11T11:08:02;57.13;;;52.57;;
17414;SDS011;8825;48.086;16.426;2024-01-11T11:10:34;55.23;;;50.83;;
17414;SDS011;8825;48.086;16.426;2024-01-11T11:13:03;50.07;;;45.97;;
17414;SDS011;8825;48.086;16.426;2024-01-11T11:15:32;46.03;;;41.83;;
17414;SDS011;8825;48.086;16.426;2024-01-11T11:18:03;46.30;;;42.47;;
17414;SDS011;8825;48.086;16.426;2024-01-11T11:20:31;55.00;;;50.50;;
17414;SDS011;8825;48.086;16.426;2024-01-11T11:23:08;44.80;;;40.40;;
17414;SDS011;8825;48.086;16.426;2024-01-11T11:25:32;61.03;;;55.90;;
17414;SDS011;8825;48.086;16.426;2024-01-11T11:28:00;44.63;;;40.73;;
17414;SDS011;8825;48.086;16.426;2024-01-11T11:30:30;42.27;;;38.17;;
17414;SDS011;8825;48.086;16.426;2024-01-11T11:33:03;36.60;;;33.03;;
17414;SDS011;8825;48.086;16.426;2024-01-11T11:35:43;47.00;;;43.03;;
17414;SDS011;8825;48.086;16.426;2024-01-11T11:38:18;54.87;;;50.70;;
17414;SDS011;8825;48.086;16.426;2024-01-11T11:40:50;63.80;;;58.87;;
17414;SDS011;8825;48.086;16.426;2024-01-11T11:43:20;67.27;;;62.33;;
17414;SDS011;8825;48.086;16.426;2024-01-11T11:45:48;53.80;;;49.47;;
17414;SDS011;8825;48.086;16.426;2024-01-11T11:51:07;38.20;;;34.27;;
17414;SDS011;8825;48.086;16.426;2024-01-11T11:53:37;37.67;;;33.97;;
17414;SDS011;8825;48.086;16.426;2024-01-11T11:56:06;34.80;;;31.37;;
17414;SDS011;8825;48.086;16.426;2024-01-11T11:58:36;42.17;;;38.23;;
17414;SDS011;8825;48.086;16.426;2024-01-11T12:01:04;45.60;;;41.63;;
17414;SDS011;8825;48.086;16.426;2024-01-11T12:03:32;42.57;;;38.93;;
17414;SDS011;8825;48.086;16.426;2024-01-11T12:06:05;47.70;;;43.87;;
17414;SDS011;8825;48.086;16.426;2024-01-11T12:08:34;40.23;;;36.63;;
17414;SDS011;8825;48.086;16.426;2024-01-11T12:11:02;40.63;;;36.90;;
17414;SDS011;8825;48.086;16.426;2024-01-11T12:13:31;46.70;;;42.90;;
17414;SDS011;8825;48.086;16.426;2024-01-11T12:15:59;46.50;;;42.47;;
17414;SDS011;8825;48.086;16.426;2024-01-11T12:18:27;72.60;;;67.53;;
17414;SDS011;8825;48.086;16.426;2024-01-11T12:20:54;104.17;;;98.25;;
17414;SDS011;8825;48.086;16.426;2024-01-11T12:23:22;67.83;;;63.30;;
17414;SDS011;8825;48.086;16.426;2024-01-11T12:25:50;94.95;;;88.90;;
17414;SDS011;8825;48.086;16.426;2024-01-11T12:28:17;71.90;;;66.97;;
17414;SDS011;8825;48.086;16.426;2024-01-11T12:30:45;68.83;;;63.80;;
17414;SDS011;8825;48.086;16.426;2024-01-11T12:33:13;63.30;;;58.52;;
17414;SDS011;8825;48.086;16.426;2024-01-11T12:35:41;46.67;;;42.47;;
17414;SDS011;8825;48.086;16.426;2024-01-11T12:38:09;46.18;;;42.55;;
17414;SDS011;8825;48.086;16.426;2024-01-11T12:40:37;51.98;;;47.65;;
17414;SDS011;8825;48.086;16.426;2024-01-11T12:43:06;50.38;;;46.08;;
17414;SDS011;8825;48.086;16.426;2024-01-11T12:45:34;48.02;;;44.03;;
17414;SDS011;8825;48.086;16.426;2024-01-11T12:48:02;52.63;;;48.43;;
17414;SDS011;8825;48.086;16.426;2024-01-11T12:50:32;40.30;;;36.42;;
17414;SDS011;8825;48.086;16.426;2024-01-11T12:53:14;46.68;;;42.80;;
17414;SDS011;8825;48.086;16.426;2024-01-11T12:55:46;53.48;;;49.23;;
17414;SDS011;8825;48.086;16.426;2024-01-11T12:58:19;59.40;;;54.83;;
17414;SDS011;8825;48.086;16.426;2024-01-11T13:00:47;66.47;;;61.75;;
17414;SDS011;8825;48.086;16.426;2024-01-11T13:03:15;49.48;;;45.25;;
17414;SDS011;8825;48.086;16.426;2024-01-11T13:05:44;42.17;;;38.25;;
17414;SDS011;8825;48.086;16.426;2024-01-11T13:08:12;70.05;;;64.87;;
17414;SDS011;8825;48.086;16.426;2024-01-11T13:10:39;63.45;;;58.87;;
17414;SDS011;8825;48.086;16.426;2024-01-11T13:13:07;51.30;;;47.38;;
17414;SDS011;8825;48.086;16.426;2024-01-11T13:15:35;48.28;;;44.63;;
17414;SDS011;8825;48.086;16.426;2024-01-11T13:18:02;69.75;;;65.03;;
17414;SDS011;8825;48.086;16.426;2024-01-11T13:20:31;57.23;;;53.15;;
17414;SDS011;8825;48.086;16.426;2024-01-11T13:25:48;52.25;;;48.08;;
17414;SDS011;8825;48.086;16.426;2024-01-11T13:28:16;63.75;;;58.87;;
17414;SDS011;8825;48.086;16.426;2024-01-11T13:30:46;59.73;;;55.33;;
17414;SDS011;8825;48.086;16.426;2024-01-11T13:33:14;58.78;;;54.60;;
17414;SDS011;8825;48.086;16.426;2024-01-11T13:35:43;55.30;;;51.35;;
17414;SDS011;8825;48.086;16.426;2024-01-11T13:38:10;56.53;;;52.23;;
17414;SDS011;8825;48.086;16.426;2024-01-11T13:40:38;64.05;;;59.42;;
17414;SDS011;8825;48.086;16.426;2024-01-11T13:43:06;89.13;;;83.52;;
17414;SDS011;8825;48.086;16.426;2024-01-11T13:45:33;54.63;;;50.30;;
17414;SDS011;8825;48.086;16.426;2024-01-11T13:48:04;45.95;;;41.73;;
17414;SDS011;8825;48.086;16.426;2024-01-11T13:50:32;46.95;;;42.65;;
17414;SDS011;8825;48.086;16.426;2024-01-11T13:53:00;46.23;;;42.33;;
17414;SDS011;8825;48.086;16.426;2024-01-11T13:55:28;43.48;;;39.92;;
17414;SDS011;8825;48.086;16.426;2024-01-11T13:57:57;40.80;;;37.13;;
17414;SDS011;8825;48.086;16.426;2024-01-11T14:00:24;38.02;;;34.30;;
17414;SDS011;8825;48.086;16.426;2024-01-11T14:02:52;44.15;;;40.15;;
17414;SDS011;8825;48.086;16.426;2024-01-11T14:05:19;52.13;;;47.95;;
17414;SDS011;8825;48.086;16.426;2024-01-11T14:07:47;52.08;;;47.98;;
17414;SDS011;8825;48.086;16.426;2024-01-11T14:10:16;43.10;;;39.30;;
17414;SDS011;8825;48.086;16.426;2024-01-11T14:12:44;40.03;;;36.45;;
17414;SDS011;8825;48.086;16.426;2024-01-11T14:15:12;60.38;;;55.83;;
17414;SDS011;8825;48.086;16.426;2024-01-11T14:17:39;64.12;;;59.73;;
17414;SDS011;8825;48.086;16.426;2024-01-11T14:20:07;46.13;;;42.33;;
17414;SDS011;8825;48.086;16.426;2024-01-11T14:22:37;48.52;;;44.50;;
17414;SDS011;8825;48.086;16.426;2024-01-11T14:25:05;50.60;;;46.40;;
17414;SDS011;8825;48.086;16.426;2024-01-11T14:27:33;44.58;;;40.65;;
17414;SDS011;8825;48.086;16.426;2024-01-11T14:32:48;46.95;;;43.05;;
17414;SDS011;8825;48.086;16.426;2024-01-11T14:35:16;42.60;;;38.85;;
17414;SDS011;8825;48.086;16.426;2024-01-11T14:37:43;40.25;;;36.70;;
17414;SDS011;8825;48.086;16.426;2024-01-11T14:40:11;37.17;;;33.88;;